Aérodrome :
LOGIN :

S'inscrire | Disclaimer

   EN    FR    IT 

 










Légende :    VFR   VFR Marginal   IFR   IFR Intensif   IFR Très Intensif
Visi : 
Plafond : 
>= 8 km
>= 3000ft
5 à 8 km
1000 à 3000 ft
1500m à 5 km
500 à 1000 ft
800 à 1500m
200 à 500 ft
< 800m
< 200 ft
Symboles :   Orages  Brouillard  Fortes neiges  Fortes précipitations  Vent > 20 kt
SIGMETs :   Divers  Orages  Givrage  Turbulence  Onde Orograph.  Cendres Volcan.






- Altitude de l'aérodrome : 614 ft
- Code IATA : CRL


EBCI - Charleroi

DERNIER METAR :
  • 030620Z 02005KT 3500 BR SCT003 BKN005 13/12 Q1013 TEMPO 2500 BR

METARs EXPIRÉS :
  • 030550Z 01004KT 3500 -RA BR FEW002 BKN004 12/12 Q1013 TEMPO 2500 -RADZ BR
  • 030520Z 31003KT 280V360 3000 RA BR BKN004 12/11 Q1013 TEMPO 2500 RA BR
  • 030450Z 31003KT 270V330 3000 -RA BR BKN005 12/11 Q1013 TEMPO 2900 -RA BKN004
  • 030420Z VRB01KT 5000 -RA FEW004 12/11 Q1013 TEMPO 4000 -RA
  • 030350Z 11004KT 090V150 5000 -RA NSC 12/11 Q1013 TEMPO 4000 -RA

TAF TAF EBCI
Valide du 03 à 06h jusqu'au 04 à 12h UTC


030506Z 0306/0412 VRB03KT 9999 SCT025
PROB40
TEMPO 0306/0309 4000 RA BKN012
PROB40
TEMPO 0311/0321 3500 SHRA TSRA
PROB30
TEMPO 0402/0406 4000 BR



MET'MAP, la Météo Aéronautique d'un coup d'oeil ! - Copyright ORBIFLY Décembre 2007 - Disclaimer

ORBIFLY MET'MAP TEAM :

Programmation & Développement : Alexandra Zaïnal
Sur une idée originale de : Baudouin d'Aumeries
Assistance à la programmation : Marc-Olivier Méhu
Soutien technique & logistique : Manuel Goepfert

Contact : metmap@orbifly.com




SOURCES & CREDITS :

   NOAA